Time;durP1;ratioP1;P1;durP2;ratioP2;P2;SDS_P1;SDS_P2;PMS_P1;PMS_P2;Temp;Humidity;BMP_temperature;BMP_pressure;BME280_temperature;BME280_humidity;BME280_pressure;Samples;Min_cycle;Max_cycle;Signal;HPM_P1;HPM_P2
2022/02/20 00:00:24;;;;;;;4.46;1.55;;;;;;;;;;355565;148;860898;-57
2022/02/20 00:01:25;;;;;;;3.78;1.56;;;;;;;;;;356243;147;864090;-58
2022/02/20 00:02:27;;;;;;;5.65;1.66;;;;;;;;;;362216;144;856436;-57
2022/02/20 00:03:28;;;;;;;4.43;1.90;;;;;;;;;;360996;144;857406;-57
2022/02/20 00:04:30;;;;;;;4.61;2.50;;;;;;;;;;360918;144;857952;-58
2022/02/20 00:05:31;;;;;;;4.38;1.83;;;;;;;;;;362464;144;856078;-58
2022/02/20 00:06:33;;;;;;;3.65;2.16;;;;;;;;;;361400;144;863829;-57
2022/02/20 00:07:34;;;;;;;4.68;2.13;;;;;;;;;;360984;144;863895;-58
2022/02/20 00:08:36;;;;;;;3.98;2.04;;;;;;;;;;360472;144;863837;-58
2022/02/20 00:09:39;;;;;;;5.63;2.06;;;;;;;;;;362451;144;863646;-60
2022/02/20 00:10:41;;;;;;;5.66;1.86;;;;;;;;;;362032;144;856230;-59
2022/02/20 00:11:42;;;;;;;5.66;1.65;;;;;;;;;;361980;144;856236;-59
2022/02/20 00:12:44;;;;;;;4.00;1.69;;;;;;;;;;364846;144;856241;-57
2022/02/20 00:13:46;;;;;;;5.83;1.90;;;;;;;;;;356883;147;856971;-59
2022/02/20 00:14:47;;;;;;;5.06;1.76;;;;;;;;;;360596;144;856420;-59
2022/02/20 00:15:49;;;;;;;4.52;1.74;;;;;;;;;;362714;144;856596;-60
2022/02/20 00:16:52;;;;;;;3.28;1.53;;;;;;;;;;357609;149;856115;-59
2022/02/20 00:17:54;;;;;;;5.56;1.91;;;;;;;;;;355255;148;856337;-59
2022/02/20 00:18:56;;;;;;;4.55;1.92;;;;;;;;;;356637;147;856184;-60
2022/02/20 00:19:57;;;;;;;4.62;1.74;;;;;;;;;;361359;144;856691;-58
2022/02/20 00:20:59;;;;;;;4.14;1.55;;;;;;;;;;361346;144;856770;-60
2022/02/20 00:22:00;;;;;;;4.72;1.66;;;;;;;;;;360014;144;856719;-58
2022/02/20 00:23:02;;;;;;;2.66;1.40;;;;;;;;;;355922;148;857436;-60
2022/02/20 00:24:04;;;;;;;3.72;1.63;;;;;;;;;;360050;144;856402;-59
2022/02/20 00:25:06;;;;;;;4.49;1.79;;;;;;;;;;360578;144;856653;-57
2022/02/20 00:26:09;;;;;;;4.17;1.67;;;;;;;;;;361898;144;863645;-59
2022/02/20 00:27:11;;;;;;;3.47;1.80;;;;;;;;;;361113;145;863599;-59
2022/02/20 00:28:12;;;;;;;4.19;1.70;;;;;;;;;;361809;144;864170;-58
2022/02/20 00:29:14;;;;;;;3.64;2.19;;;;;;;;;;361818;144;857496;-57
2022/02/20 00:30:17;;;;;;;4.12;1.74;;;;;;;;;;361818;144;863854;-58
2022/02/20 00:31:18;;;;;;;7.56;1.98;;;;;;;;;;355935;149;856345;-58
2022/02/20 00:32:20;;;;;;;6.14;1.66;;;;;;;;;;355806;147;863801;-59
2022/02/20 00:33:22;;;;;;;6.76;1.54;;;;;;;;;;361737;144;864071;-57
2022/02/20 00:34:23;;;;;;;3.23;1.91;;;;;;;;;;361167;144;864586;-57
2022/02/20 00:35:26;;;;;;;2.89;1.57;;;;;;;;;;362275;144;863662;-59
2022/02/20 00:36:28;;;;;;;2.76;1.59;;;;;;;;;;360440;144;856692;-57
2022/02/20 00:37:29;;;;;;;5.19;1.36;;;;;;;;;;361206;144;856732;-60
2022/02/20 00:38:31;;;;;;;5.91;1.71;;;;;;;;;;360415;144;856244;-57
2022/02/20 00:39:33;;;;;;;3.91;1.86;;;;;;;;;;360904;144;863718;-59
2022/02/20 00:40:34;;;;;;;5.09;1.81;;;;;;;;;;362420;144;863476;-59
2022/02/20 00:41:36;;;;;;;4.96;1.60;;;;;;;;;;362397;144;863720;-57
2022/02/20 00:42:37;;;;;;;4.74;1.76;;;;;;;;;;360990;144;863647;-57
2022/02/20 00:43:39;;;;;;;3.67;1.44;;;;;;;;;;362455;144;856969;-60
2022/02/20 00:44:40;;;;;;;4.45;1.75;;;;;;;;;;362080;144;856957;-57
2022/02/20 00:45:42;;;;;;;4.36;1.92;;;;;;;;;;360702;144;864601;-57
2022/02/20 00:46:44;;;;;;;4.16;1.72;;;;;;;;;;354918;147;864463;-60
2022/02/20 00:47:45;;;;;;;3.44;1.96;;;;;;;;;;361691;144;863913;-56
2022/02/20 00:48:47;;;;;;;4.39;1.56;;;;;;;;;;360383;144;857286;-57
2022/02/20 00:49:48;;;;;;;6.04;1.81;;;;;;;;;;361558;144;863654;-59
2022/02/20 00:50:50;;;;;;;3.90;1.66;;;;;;;;;;361122;144;857059;-60
2022/02/20 00:51:51;;;;;;;4.21;1.68;;;;;;;;;;361029;144;856403;-56
2022/02/20 00:52:53;;;;;;;3.14;1.32;;;;;;;;;;361601;144;859071;-59
2022/02/20 00:53:55;;;;;;;5.92;1.54;;;;;;;;;;360455;144;857515;-60
2022/02/20 00:54:56;;;;;;;3.96;1.44;;;;;;;;;;362229;144;864480;-60
2022/02/20 00:55:58;;;;;;;6.53;1.90;;;;;;;;;;359586;144;863944;-56
2022/02/20 00:56:59;;;;;;;5.26;1.79;;;;;;;;;;360619;144;856755;-59
2022/02/20 00:58:02;;;;;;;2.36;1.16;;;;;;;;;;361214;144;864279;-59
2022/02/20 00:59:03;;;;;;;4.23;1.58;;;;;;;;;;355521;147;856112;-59
2022/02/20 01:00:06;;;;;;;5.06;1.75;;;;;;;;;;356129;148;856313;-59
2022/02/20 01:01:07;;;;;;;4.87;1.76;;;;;;;;;;361201;144;863743;-59
2022/02/20 01:02:09;;;;;;;7.16;1.99;;;;;;;;;;361595;144;857163;-59
2022/02/20 01:03:11;;;;;;;12.14;2.04;;;;;;;;;;362601;144;856507;-59
2022/02/20 01:04:12;;;;;;;8.33;1.79;;;;;;;;;;361741;144;863764;-59
2022/02/20 01:05:14;;;;;;;3.33;1.61;;;;;;;;;;360360;144;857272;-59
2022/02/20 01:06:16;;;;;;;4.52;1.78;;;;;;;;;;363816;144;856709;-60
2022/02/20 01:07:18;;;;;;;3.86;1.59;;;;;;;;;;360534;144;856940;-59
2022/02/20 01:08:19;;;;;;;6.76;1.83;;;;;;;;;;363242;144;856959;-59
2022/02/20 01:09:21;;;;;;;4.67;1.68;;;;;;;;;;360465;144;856364;-60
2022/02/20 01:10:25;;;;;;;4.77;1.72;;;;;;;;;;361100;144;856584;-59
2022/02/20 01:11:26;;;;;;;3.55;1.36;;;;;;;;;;355050;147;863804;-58
2022/02/20 01:14:22;;;;;;;3.52;1.24;;;;;;;3.43;53.29;99370.39;370059;142;880360;-62
2022/02/20 01:15:23;;;;;;;5.67;2.43;;;;;;;3.35;53.26;99365.20;368591;142;856455;-62
2022/02/20 01:16:26;;;;;;;4.15;1.99;;;;;;;3.37;53.39;99375.44;369172;142;856871;-62
2022/02/20 01:17:27;;;;;;;10.16;2.08;;;;;;;3.38;53.48;99371.20;370002;142;857452;-62
2022/02/20 01:18:29;;;;;;;4.40;1.51;;;;;;;3.40;53.45;99375.47;368052;142;863784;-61
2022/02/20 01:19:31;;;;;;;5.39;2.15;;;;;;;;;;369983;141;863730;-62
2022/02/20 01:20:32;;;;;;;6.00;1.95;;;;;;;;;;370420;141;864337;-62
2022/02/20 01:21:34;;;;;;;2.91;1.25;;;;;;;;;;370250;141;858167;-62
2022/02/20 01:22:35;;;;;;;6.07;1.71;;;;;;;;;;368199;141;863538;-62
2022/02/20 01:23:37;;;;;;;4.79;1.20;;;;;;;;;;368997;142;863809;-62
2022/02/20 01:24:39;;;;;;;3.50;1.59;;;;;;;;;;368726;143;856263;-62
2022/02/20 01:25:40;;;;;;;5.89;1.46;;;;;;;;;;370085;141;857174;-63
2022/02/20 01:26:42;;;;;;;2.66;1.69;;;;;;;;;;370161;144;857111;-62
2022/02/20 01:27:44;;;;;;;5.96;2.39;;;;;;;;;;370158;142;863919;-63
2022/02/20 01:28:45;;;;;;;4.34;1.86;;;;;;;;;;370125;142;861518;-62
2022/02/20 01:29:47;;;;;;;4.40;1.81;;;;;;;;;;368776;142;863836;-63
2022/02/20 01:30:48;;;;;;;4.84;1.99;;;;;;;;;;369646;142;856180;-63
2022/02/20 01:31:50;;;;;;;5.26;2.07;;;;;;;;;;361502;145;861558;-63
2022/02/20 01:32:51;;;;;;;8.46;1.74;;;;;;;;;;369110;142;863647;-63
2022/02/20 01:33:53;;;;;;;4.51;1.80;;;;;;;;;;362821;144;856748;-62
2022/02/20 01:34:54;;;;;;;4.21;1.96;;;;;;;;;;365012;144;857047;-62
2022/02/20 01:35:57;;;;;;;2.52;1.24;;;;;;;;;;364400;144;856105;-63
2022/02/20 01:36:58;;;;;;;3.27;1.65;;;;;;;;;;364028;145;863814;-62
2022/02/20 01:38:00;;;;;;;7.91;2.31;;;;;;;;;;363817;145;856575;-62
2022/02/20 01:39:01;;;;;;;4.26;1.86;;;;;;;;;;363961;145;856277;-62
2022/02/20 01:40:03;;;;;;;4.29;1.58;;;;;;;;;;365468;144;856524;-63
2022/02/20 01:41:05;;;;;;;8.93;2.43;;;;;;;;;;364007;145;863772;-63
2022/02/20 01:42:06;;;;;;;6.19;2.09;;;;;;;;;;365027;144;863780;-63
2022/02/20 01:43:10;;;;;;;6.56;1.89;;;;;;;;;;365519;144;856183;-63
2022/02/20 01:44:12;;;;;;;5.33;1.89;;;;;;;;;;362864;145;856396;-63
2022/02/20 01:45:14;;;;;;;2.88;1.59;;;;;;;;;;365031;144;857367;-63
2022/02/20 01:46:15;;;;;;;3.72;1.99;;;;;;;;;;365833;144;864006;-63
2022/02/20 01:47:17;;;;;;;5.05;2.29;;;;;;;;;;364543;144;857046;-62
2022/02/20 01:48:18;;;;;;;3.88;1.92;;;;;;;;;;363835;144;856443;-62
2022/02/20 01:49:21;;;;;;;3.83;1.22;;;;;;;;;;364525;144;856913;-62
2022/02/20 01:50:23;;;;;;;4.17;1.88;;;;;;;;;;365715;144;858330;-62
2022/02/20 01:51:24;;;;;;;4.25;2.14;;;;;;;;;;366644;144;863956;-61
2022/02/20 01:52:27;;;;;;;5.72;1.84;;;;;;;;;;365513;144;864403;-63
2022/02/20 01:53:28;;;;;;;7.65;1.78;;;;;;;;;;365763;144;863810;-63
2022/02/20 01:54:30;;;;;;;6.82;2.84;;;;;;;;;;363368;144;856270;-62
2022/02/20 01:55:32;;;;;;;5.62;1.96;;;;;;;;;;364826;144;862227;-62
2022/02/20 01:56:33;;;;;;;4.39;2.16;;;;;;;;;;365360;145;863807;-62
2022/02/20 01:57:39;;;;;;;3.28;1.46;;;;;;;;;;363601;145;863871;-63
2022/02/20 01:58:41;;;;;;;6.92;1.99;;;;;;;;;;363642;144;863482;-62
2022/02/20 01:59:42;;;;;;;8.93;1.95;;;;;;;;;;364102;144;856467;-62
2022/02/20 02:00:45;;;;;;;7.68;2.15;;;;;;;;;;365200;144;856886;-62
2022/02/20 02:01:46;;;;;;;12.47;1.97;;;;;;;;;;362809;145;863941;-62
2022/02/20 02:02:48;;;;;;;5.29;1.89;;;;;;;;;;364966;144;856995;-62
2022/02/20 02:03:49;;;;;;;5.84;2.05;;;;;;;;;;364356;145;863890;-63
2022/02/20 02:04:51;;;;;;;8.46;2.19;;;;;;;;;;364836;144;861414;-62
2022/02/20 02:05:52;;;;;;;5.01;2.41;;;;;;;;;;364598;144;856146;-62
2022/02/20 02:06:54;;;;;;;4.60;2.08;;;;;;;;;;364937;144;863694;-63
2022/02/20 02:07:55;;;;;;;4.53;1.73;;;;;;;;;;364121;144;863613;-63
2022/02/20 02:08:58;;;;;;;5.62;2.27;;;;;;;;;;364305;145;863792;-63
2022/02/20 02:10:00;;;;;;;5.31;1.87;;;;;;;;;;362653;144;863810;-62
2022/02/20 02:11:01;;;;;;;4.71;2.02;;;;;;;;;;364934;144;863849;-61
2022/02/20 02:12:04;;;;;;;6.92;2.11;;;;;;;;;;366025;144;863740;-62
2022/02/20 02:13:05;;;;;;;3.74;2.19;;;;;;;;;;365529;144;863757;-62
2022/02/20 02:14:07;;;;;;;3.42;1.46;;;;;;;;;;364641;145;856426;-62
2022/02/20 02:15:09;;;;;;;7.19;1.91;;;;;;;;;;362550;145;856289;-62
2022/02/20 02:16:12;;;;;;;5.93;2.22;;;;;;;;;;362854;145;856158;-62
2022/02/20 02:17:14;;;;;;;5.62;2.46;;;;;;;;;;361729;145;856182;-62
2022/02/20 02:18:15;;;;;;;5.10;2.16;;;;;;;;;;361948;146;863727;-62
2022/02/20 02:19:17;;;;;;;4.79;2.13;;;;;;;;;;362199;146;862663;-63
2022/02/20 02:20:19;;;;;;;6.15;2.31;;;;;;;;;;362253;145;864082;-63
2022/02/20 02:21:22;;;;;;;5.07;2.11;;;;;;;;;;361948;145;856545;-63
2022/02/20 02:22:24;;;;;;;5.03;2.41;;;;;;;;;;362993;146;856657;-62
2022/02/20 02:23:26;;;;;;;4.44;1.52;;;;;;;;;;362180;146;864581;-62
2022/02/20 02:24:27;;;;;;;4.51;1.89;;;;;;;;;;362284;145;856170;-63
2022/02/20 02:25:30;;;;;;;2.87;1.36;;;;;;;;;;362545;145;856214;-63
2022/02/20 02:26:32;;;;;;;7.07;2.30;;;;;;;;;;363246;145;856176;-62
2022/02/20 02:27:35;;;;;;;4.43;2.16;;;;;;;;;;360281;145;856270;-62
2022/02/20 02:28:37;;;;;;;9.15;2.34;;;;;;;;;;360989;146;863661;-63
2022/02/20 02:29:39;;;;;;;7.82;2.18;;;;;;;;;;360966;146;856704;-63
2022/02/20 02:30:40;;;;;;;9.65;2.51;;;;;;;;;;361740;147;863760;-63
2022/02/20 02:31:42;;;;;;;6.44;2.11;;;;;;;;;;361223;146;856337;-63
2022/02/20 02:32:44;;;;;;;5.05;2.07;;;;;;;;;;361367;145;857409;-63
2022/02/20 02:33:45;;;;;;;8.24;2.38;;;;;;;;;;363372;145;856221;-63
2022/02/20 02:34:47;;;;;;;5.31;2.29;;;;;;;;;;362498;146;856927;-63
2022/02/20 02:35:48;;;;;;;3.39;1.76;;;;;;;;;;362956;146;856143;-63
2022/02/20 02:36:50;;;;;;;14.72;1.93;;;;;;;;;;361204;147;863437;-63
2022/02/20 02:37:53;;;;;;;5.43;2.17;;;;;;;;;;362218;146;863938;-62
2022/02/20 02:38:54;;;;;;;6.36;2.41;;;;;;;;;;362219;145;857469;-62
2022/02/20 02:39:56;;;;;;;4.87;2.17;;;;;;;;;;360792;147;856241;-64
2022/02/20 02:40:59;;;;;;;5.84;2.34;;;;;;;;;;361288;146;856553;-63
2022/02/20 02:42:01;;;;;;;7.02;2.19;;;;;;;;;;360877;146;856801;-63
2022/02/20 02:43:03;;;;;;;4.19;2.03;;;;;;;;;;361150;145;856210;-63
2022/02/20 02:44:04;;;;;;;5.25;2.09;;;;;;;;;;364018;145;863790;-63
2022/02/20 02:45:07;;;;;;;6.47;2.06;;;;;;;;;;355322;149;857144;-62
2022/02/20 02:46:08;;;;;;;6.77;2.23;;;;;;;;;;346887;151;856456;-63
2022/02/20 02:47:10;;;;;;;7.34;2.19;;;;;;;;;;345836;153;856330;-63
2022/02/20 02:48:12;;;;;;;4.86;2.05;;;;;;;;;;353881;149;864028;-63
2022/02/20 02:49:13;;;;;;;9.29;2.16;;;;;;;;;;351256;150;863857;-63
2022/02/20 02:50:16;;;;;;;5.50;2.20;;;;;;;;;;352346;150;856802;-63
2022/02/20 02:51:18;;;;;;;7.85;1.91;;;;;;;;;;351423;150;856582;-63
2022/02/20 02:52:19;;;;;;;5.46;1.94;;;;;;;;;;349403;150;857904;-62
2022/02/20 02:53:21;;;;;;;6.46;2.06;;;;;;;;;;350465;152;863994;-63
2022/02/20 02:54:22;;;;;;;5.41;2.23;;;;;;;;;;346977;152;856679;-62
2022/02/20 02:55:24;;;;;;;5.09;1.82;;;;;;;;;;348066;151;857144;-62
2022/02/20 02:56:27;;;;;;;4.80;1.88;;;;;;;;;;348471;152;857451;-63
2022/02/20 02:57:29;;;;;;;5.13;2.06;;;;;;;;;;351370;149;856713;-63
2022/02/20 02:58:30;;;;;;;5.05;2.17;;;;;;;;;;350090;149;863777;-63
2022/02/20 02:59:32;;;;;;;4.90;1.99;;;;;;;;;;350958;150;858317;-63
2022/02/20 03:00:34;;;;;;;4.48;1.93;;;;;;;;;;352933;149;858796;-63
2022/02/20 03:01:35;;;;;;;4.02;1.96;;;;;;;;;;347037;151;863893;-63
2022/02/20 03:02:37;;;;;;;4.51;2.16;;;;;;;;;;346226;152;856086;-63
2022/02/20 03:03:39;;;;;;;3.75;1.67;;;;;;;;;;353854;149;863782;-63
2022/02/20 03:04:40;;;;;;;4.75;1.74;;;;;;;;;;352771;150;856186;-62
2022/02/20 03:05:42;;;;;;;6.95;2.24;;;;;;;;;;352365;149;863996;-62
2022/02/20 03:06:43;;;;;;;7.57;2.63;;;;;;;;;;352837;149;856730;-63
2022/02/20 03:07:46;;;;;;;6.57;2.46;;;;;;;;;;351208;151;856466;-63
2022/02/20 03:08:47;;;;;;;5.00;1.94;;;;;;;;;;347906;152;856487;-63
2022/02/20 03:09:49;;;;;;;6.42;2.17;;;;;;;;;;347036;152;856943;-63
2022/02/20 03:10:50;;;;;;;9.85;2.59;;;;;;;;;;348465;151;856145;-63
2022/02/20 03:11:52;;;;;;;3.95;1.79;;;;;;;;;;348430;151;857765;-63
2022/02/20 03:12:54;;;;;;;7.40;2.12;;;;;;;;;;348374;151;864087;-63
2022/02/20 03:13:55;;;;;;;6.02;1.99;;;;;;;;;;352665;149;857816;-63
2022/02/20 03:14:57;;;;;;;5.36;2.48;;;;;;;;;;350598;149;864561;-63
2022/02/20 03:15:59;;;;;;;7.14;2.14;;;;;;;;;;364261;144;856481;-63
2022/02/20 03:17:00;;;;;;;6.45;2.31;;;;;;;;;;365557;144;863674;-62
2022/02/20 03:18:02;;;;;;;5.41;2.03;;;;;;;;;;363907;144;856226;-63
2022/02/20 03:19:03;;;;;;;8.74;2.39;;;;;;;;;;365221;144;856195;-63
2022/02/20 03:20:07;;;;;;;4.83;2.01;;;;;;;;;;363650;144;859782;-63
2022/02/20 03:21:09;;;;;;;5.84;2.18;;;;;;;;;;364093;145;863772;-63
2022/02/20 03:22:10;;;;;;;5.80;2.10;;;;;;;;;;365618;144;856278;-63
2022/02/20 03:23:12;;;;;;;3.86;2.06;;;;;;;;;;364683;145;863863;-63
2022/02/20 03:24:13;;;;;;;6.34;2.24;;;;;;;;;;365201;144;864299;-63
2022/02/20 03:25:15;;;;;;;7.08;2.25;;;;;;;;;;363635;145;858060;-63
2022/02/20 03:26:17;;;;;;;6.07;2.53;;;;;;;;;;365324;144;864263;-62
2022/02/20 03:27:19;;;;;;;8.15;2.08;;;;;;;;;;364955;145;857002;-62
2022/02/20 03:28:20;;;;;;;4.89;2.32;;;;;;;;;;364742;144;857462;-62
2022/02/20 03:29:22;;;;;;;4.17;1.82;;;;;;;;;;364109;145;864114;-62
2022/02/20 03:30:23;;;;;;;3.91;1.89;;;;;;;;;;363945;144;856517;-62
2022/02/20 03:31:25;;;;;;;4.88;2.25;;;;;;;;;;365473;144;863861;-62
2022/02/20 03:32:26;;;;;;;4.44;2.33;;;;;;;;;;365332;145;863958;-62
2022/02/20 03:33:28;;;;;;;6.19;2.21;;;;;;;;;;363817;145;859860;-62
2022/02/20 03:34:30;;;;;;;4.84;2.35;;;;;;;;;;364591;144;863903;-62
2022/02/20 03:35:32;;;;;;;6.01;2.39;;;;;;;;;;363109;144;856141;-62
2022/02/20 03:36:34;;;;;;;4.21;2.32;;;;;;;;;;365624;144;858277;-62
2022/02/20 03:37:35;;;;;;;8.33;2.17;;;;;;;;;;365721;144;864742;-62
2022/02/20 03:38:37;;;;;;;9.89;2.44;;;;;;;;;;365598;144;856465;-63
2022/02/20 03:39:39;;;;;;;5.35;2.17;;;;;;;;;;366902;144;858985;-62
2022/02/20 03:40:40;;;;;;;5.76;2.36;;;;;;;;;;365445;144;863824;-62
2022/02/20 03:41:43;;;;;;;5.05;2.10;;;;;;;;;;365099;144;863750;-62
2022/02/20 03:42:45;;;;;;;6.75;2.22;;;;;;;;;;365456;145;863921;-62
2022/02/20 03:43:46;;;;;;;4.04;2.17;;;;;;;;;;364412;144;863915;-62
2022/02/20 03:44:48;;;;;;;5.58;2.31;;;;;;;;;;364782;145;863739;-62
2022/02/20 03:45:49;;;;;;;4.97;2.04;;;;;;;;;;364354;144;864160;-63
2022/02/20 03:46:51;;;;;;;3.89;1.84;;;;;;;;;;364868;144;856107;-63
2022/02/20 03:47:52;;;;;;;3.06;1.76;;;;;;;;;;365638;144;863731;-62
2022/02/20 03:48:54;;;;;;;8.31;2.44;;;;;;;;;;364015;144;856146;-62
2022/02/20 03:49:55;;;;;;;5.10;2.21;;;;;;;;;;365367;145;862897;-62
2022/02/20 03:50:57;;;;;;;10.24;2.26;;;;;;;;;;364639;145;857082;-62
2022/02/20 03:51:58;;;;;;;4.16;2.26;;;;;;;;;;365354;144;858695;-62
2022/02/20 03:53:00;;;;;;;4.48;2.36;;;;;;;;;;366561;144;856593;-63
2022/02/20 03:54:02;;;;;;;4.06;1.84;;;;;;;;;;364832;144;857356;-63
2022/02/20 03:55:07;;;;;;;5.96;2.47;;;;;;;;;;363811;144;856431;-63
2022/02/20 03:56:08;;;;;;;7.16;2.68;;;;;;;;;;364794;145;863638;-62
2022/02/20 03:57:10;;;;;;;5.64;2.19;;;;;;;;;;365893;144;856449;-63
2022/02/20 03:58:11;;;;;;;6.82;2.40;;;;;;;;;;364960;144;863842;-63
2022/02/20 03:59:13;;;;;;;4.61;2.09;;;;;;;;;;365159;144;860877;-63
2022/02/20 04:00:16;;;;;;;5.06;2.22;;;;;;;;;;365705;144;864499;-62
2022/02/20 04:01:18;;;;;;;6.44;2.30;;;;;;;;;;364953;144;856292;-62
2022/02/20 04:02:20;;;;;;;7.65;2.60;;;;;;;;;;364789;144;856435;-62
2022/02/20 04:03:22;;;;;;;4.59;2.12;;;;;;;;;;364484;144;864080;-62
2022/02/20 04:04:23;;;;;;;5.14;2.33;;;;;;;;;;367089;144;859728;-63
2022/02/20 04:05:25;;;;;;;10.85;2.66;;;;;;;;;;365098;144;858979;-63
2022/02/20 04:06:26;;;;;;;9.53;2.19;;;;;;;;;;365284;145;856412;-62
2022/02/20 04:07:28;;;;;;;4.12;1.80;;;;;;;;;;365211;144;856226;-62
2022/02/20 04:08:29;;;;;;;7.83;2.61;;;;;;;;;;363753;144;856417;-64
2022/02/20 04:09:31;;;;;;;5.09;2.43;;;;;;;;;;364460;144;856448;-63
2022/02/20 04:10:34;;;;;;;5.98;2.44;;;;;;;;;;364092;144;863742;-63
2022/02/20 04:11:35;;;;;;;8.90;2.56;;;;;;;;;;366461;144;863660;-63
2022/02/20 04:12:37;;;;;;;10.54;2.76;;;;;;;;;;363908;144;856663;-63
2022/02/20 04:13:38;;;;;;;7.87;2.96;;;;;;;;;;367413;144;856693;-63
2022/02/20 04:14:40;;;;;;;8.61;2.87;;;;;;;;;;365652;145;862128;-63
2022/02/20 04:15:41;;;;;;;6.79;2.41;;;;;;;;;;365895;144;856231;-64
2022/02/20 04:16:43;;;;;;;10.06;2.84;;;;;;;;;;364750;144;856092;-62
2022/02/20 04:17:45;;;;;;;6.42;2.26;;;;;;;;;;364539;144;863752;-63
2022/02/20 04:18:47;;;;;;;9.63;2.90;;;;;;;;;;365908;144;857202;-63
2022/02/20 04:19:49;;;;;;;5.50;2.87;;;;;;;;;;364961;145;857051;-63
2022/02/20 04:20:50;;;;;;;7.70;2.59;;;;;;;;;;365848;144;856218;-63
2022/02/20 04:21:52;;;;;;;7.72;2.69;;;;;;;;;;364463;144;863602;-63
2022/02/20 04:22:53;;;;;;;7.79;2.82;;;;;;;;;;365525;144;856318;-63
2022/02/20 04:23:55;;;;;;;7.46;3.18;;;;;;;;;;363935;144;856260;-63
2022/02/20 04:24:56;;;;;;;6.68;3.16;;;;;;;;;;364264;145;856336;-63
2022/02/20 04:26:01;;;;;;;8.04;2.87;;;;;;;;;;363471;144;863779;-63
2022/02/20 04:27:02;;;;;;;8.34;3.21;;;;;;;;;;363938;144;864043;-63
2022/02/20 04:28:03;;;;;;;5.54;2.81;;;;;;;;;;366570;144;856231;-63
2022/02/20 04:29:05;;;;;;;7.69;2.89;;;;;;;;;;364625;144;863748;-63
2022/02/20 04:30:07;;;;;;;7.96;2.77;;;;;;;;;;365066;144;864119;-64
2022/02/20 04:31:08;;;;;;;6.79;3.07;;;;;;;;;;365236;145;863805;-63
2022/02/20 04:32:10;;;;;;;7.76;2.71;;;;;;;;;;351586;150;856831;-62
2022/02/20 04:33:12;;;;;;;6.66;2.04;;;;;;;;;;353997;148;859192;-62
2022/02/20 04:34:13;;;;;;;7.21;2.56;;;;;;;;;;365919;144;859385;-63
2022/02/20 04:35:15;;;;;;;9.16;3.21;;;;;;;;;;363567;144;864057;-63
2022/02/20 04:36:19;;;;;;;7.02;2.86;;;;;;;;;;364525;144;857113;-63
2022/02/20 04:37:20;;;;;;;5.87;2.82;;;;;;;;;;364233;144;856652;-63
2022/02/20 04:38:22;;;;;;;6.84;3.24;;;;;;;;;;364901;144;863835;-62
2022/02/20 04:39:23;;;;;;;4.98;2.37;;;;;;;;;;366008;144;864028;-62
2022/02/20 04:40:27;;;;;;;9.19;2.70;;;;;;;;;;362125;145;856912;-62
2022/02/20 04:41:30;;;;;;;7.98;2.57;;;;;;;;;;364365;144;856137;-63
2022/02/20 04:42:32;;;;;;;6.26;2.29;;;;;;;;;;363737;144;856604;-63
2022/02/20 04:43:34;;;;;;;6.72;2.63;;;;;;;;;;365471;145;863882;-63
2022/02/20 04:44:35;;;;;;;5.96;2.37;;;;;;;;;;364904;144;862406;-62
2022/02/20 04:45:37;;;;;;;5.61;2.61;;;;;;;;;;363493;144;858082;-63
2022/02/20 04:46:38;;;;;;;6.88;2.69;;;;;;;;;;365279;144;864069;-63
2022/02/20 04:47:40;;;;;;;5.65;2.46;;;;;;;;;;364410;145;863677;-63
2022/02/20 04:48:41;;;;;;;9.54;3.11;;;;;;;;;;366595;144;858438;-63
2022/02/20 04:49:43;;;;;;;7.82;2.84;;;;;;;;;;365646;144;857129;-63
2022/02/20 04:50:45;;;;;;;5.88;2.79;;;;;;;;;;365885;144;864232;-63
2022/02/20 04:51:46;;;;;;;7.20;2.56;;;;;;;;;;365911;145;863813;-63
2022/02/20 04:52:48;;;;;;;7.77;2.51;;;;;;;;;;364744;144;856649;-63
2022/02/20 04:53:49;;;;;;;6.49;2.20;;;;;;;;;;365215;144;858875;-63
2022/02/20 04:54:51;;;;;;;7.89;2.62;;;;;;;;;;365495;144;856616;-63
2022/02/20 04:55:52;;;;;;;6.22;2.93;;;;;;;;;;363409;145;856139;-62
2022/02/20 04:56:54;;;;;;;4.46;2.56;;;;;;;;;;365168;145;856054;-63
2022/02/20 04:57:56;;;;;;;6.38;2.75;;;;;;;;;;364666;144;857186;-62
2022/02/20 04:58:57;;;;;;;8.25;2.74;;;;;;;;;;365897;144;856855;-62
2022/02/20 04:59:59;;;;;;;5.39;2.84;;;;;;;;;;366242;144;856288;-62
2022/02/20 05:01:01;;;;;;;6.85;2.48;;;;;;;;;;365094;144;856702;-63
2022/02/20 05:02:02;;;;;;;9.69;2.86;;;;;;;;;;360003;147;856104;-63
2022/02/20 05:03:04;;;;;;;8.14;3.13;;;;;;;;;;359248;147;856575;-63
2022/02/20 05:04:05;;;;;;;6.93;2.73;;;;;;;;;;367169;144;856006;-63
2022/02/20 05:05:07;;;;;;;8.14;2.97;;;;;;;;;;365239;144;864290;-63
2022/02/20 05:06:09;;;;;;;7.75;2.70;;;;;;;;;;364595;145;858695;-63
2022/02/20 05:07:10;;;;;;;7.48;2.99;;;;;;;;;;366053;144;856245;-62
2022/02/20 05:08:12;;;;;;;8.47;3.01;;;;;;;;;;366608;144;864492;-62
2022/02/20 05:09:14;;;;;;;5.94;2.80;;;;;;;;;;365537;144;858629;-61
2022/02/20 05:10:17;;;;;;;10.77;3.69;;;;;;;;;;364278;144;858480;-62
2022/02/20 05:11:19;;;;;;;6.88;3.08;;;;;;;;;;366656;144;856166;-62
2022/02/20 05:12:20;;;;;;;10.57;3.51;;;;;;;;;;367016;144;863725;-62
2022/02/20 05:13:22;;;;;;;9.21;3.31;;;;;;;;;;364044;144;864036;-63
2022/02/20 05:14:23;;;;;;;10.12;3.71;;;;;;;;;;364660;145;863892;-62
2022/02/20 05:15:25;;;;;;;7.78;3.32;;;;;;;;;;364206;145;863828;-62
2022/02/20 05:16:27;;;;;;;13.19;3.93;;;;;;;;;;365115;145;857132;-64
2022/02/20 05:17:29;;;;;;;9.31;3.52;;;;;;;;;;364942;144;856648;-62
2022/02/20 05:18:30;;;;;;;9.19;3.56;;;;;;;;;;365893;144;856401;-62
2022/02/20 05:19:32;;;;;;;7.76;3.29;;;;;;;;;;364100;144;863702;-62
2022/02/20 05:20:35;;;;;;;9.61;3.79;;;;;;;;;;364969;144;863602;-63
2022/02/20 05:21:37;;;;;;;8.38;3.79;;;;;;;;;;366150;144;856107;-63
2022/02/20 05:22:39;;;;;;;12.16;4.35;;;;;;;;;;365093;144;856054;-63
2022/02/20 05:23:40;;;;;;;7.40;3.87;;;;;;;;;;364455;145;859615;-62
2022/02/20 05:24:44;;;;;;;11.49;3.71;;;;;;;;;;365134;145;859405;-62
2022/02/20 05:25:45;;;;;;;8.79;3.46;;;;;;;;;;364820;144;858014;-63
2022/02/20 05:26:47;;;;;;;8.47;3.98;;;;;;;;;;365489;144;856711;-63
2022/02/20 05:27:48;;;;;;;9.23;3.79;;;;;;;;;;364057;144;863689;-63
2022/02/20 05:28:50;;;;;;;12.14;3.99;;;;;;;;;;364323;144;856282;-63
2022/02/20 05:29:52;;;;;;;9.75;4.03;;;;;;;;;;364399;145;864896;-62
2022/02/20 05:30:53;;;;;;;12.75;3.80;;;;;;;;;;364782;144;863688;-63
2022/02/20 05:31:55;;;;;;;10.94;3.61;;;;;;;;;;366175;144;860699;-62
2022/02/20 05:32:56;;;;;;;7.76;3.56;;;;;;;;;;364679;145;864545;-62
2022/02/20 05:33:58;;;;;;;10.11;3.81;;;;;;;;;;366127;144;863737;-62
2022/02/20 05:35:00;;;;;;;9.73;3.95;;;;;;;;;;364089;144;856251;-62
2022/02/20 05:36:01;;;;;;;7.70;3.70;;;;;;;;;;364037;144;864580;-62
2022/02/20 05:37:03;;;;;;;9.36;4.72;;;;;;;;;;365010;144;863875;-62
2022/02/20 05:38:04;;;;;;;7.25;3.22;;;;;;;;;;365577;145;856552;-62
2022/02/20 05:39:06;;;;;;;7.56;3.18;;;;;;;;;;365177;144;856284;-63
2022/02/20 05:40:09;;;;;;;9.55;3.86;;;;;;;;;;365975;144;856211;-62
2022/02/20 05:41:10;;;;;;;10.10;4.02;;;;;;;;;;365615;144;863668;-62
2022/02/20 05:42:12;;;;;;;7.42;3.56;;;;;;;;;;363331;144;863822;-63
2022/02/20 05:43:14;;;;;;;7.27;2.22;;;;;;;;;;361925;144;863663;-62
2022/02/20 05:44:15;;;;;;;6.84;3.08;;;;;;;;;;365027;144;856671;-62
2022/02/20 05:45:17;;;;;;;9.70;2.96;;;;;;;;;;363898;144;856926;-62
2022/02/20 05:46:20;;;;;;;3.69;1.82;;;;;;;;;;364495;144;856799;-63
2022/02/20 05:47:22;;;;;;;9.23;3.26;;;;;;;;;;363890;144;856614;-63
2022/02/20 05:48:24;;;;;;;10.31;3.35;;;;;;;;;;363119;144;863865;-65
2022/02/20 05:49:25;;;;;;;7.16;2.96;;;;;;;;;;362945;145;863979;-62
2022/02/20 05:50:27;;;;;;;9.27;3.06;;;;;;;;;;363603;144;864270;-62
2022/02/20 05:51:28;;;;;;;5.96;2.56;;;;;;;;;;364646;145;863841;-63
2022/02/20 05:52:30;;;;;;;8.69;3.40;;;;;;;;;;365834;144;863796;-62
2022/02/20 05:53:32;;;;;;;9.84;3.20;;;;;;;;;;364608;144;857921;-63
2022/02/20 05:54:33;;;;;;;7.89;2.91;;;;;;;;;;364432;144;856492;-62
2022/02/20 05:55:34;;;;;;;6.31;3.26;;;;;;;;;;364633;145;856716;-62
2022/02/20 05:56:36;;;;;;;7.77;3.28;;;;;;;;;;364763;144;856472;-63
2022/02/20 05:57:42;;;;;;;7.14;3.21;;;;;;;;;;365356;144;863685;-62
2022/02/20 05:58:44;;;;;;;2.56;1.25;;;;;;;;;;364479;144;857260;-62
2022/02/20 05:59:45;;;;;;;6.93;2.68;;;;;;;;;;364795;144;856795;-62
2022/02/20 06:00:47;;;;;;;6.11;2.60;;;;;;;;;;363347;144;863882;-62
2022/02/20 06:01:49;;;;;;;7.41;2.26;;;;;;;;;;363949;144;863579;-63
2022/02/20 06:02:50;;;;;;;4.85;2.27;;;;;;;;;;365471;144;863637;-63
2022/02/20 06:03:52;;;;;;;7.08;2.89;;;;;;;;;;364597;144;863676;-63
2022/02/20 06:04:53;;;;;;;7.89;2.84;;;;;;;;;;363895;144;863643;-63